Time;durP1;ratioP1;P1;durP2;ratioP2;P2;SDS_P1;SDS_P2;PMS_P1;PMS_P2;Temp;Humidity;BMP_temperature;BMP_pressure;BME280_temperature;BME280_humidity;BME280_pressure;Samples;Min_cycle;Max_cycle;Signal;HPM_P1;HPM_P2
2023/05/15 00:00:15;;;;;;;11.80;10.60;;;13.40;1.00;;;;;;5092935;28;20870;-84
2023/05/15 00:02:42;;;;;;;11.80;10.70;;;13.50;99.90;;;;;;5080560;28;20998;-86
2023/05/15 00:05:10;;;;;;;11.80;10.60;;;;;;;;;;5080042;28;20947;-85
2023/05/15 00:07:38;;;;;;;12.27;10.57;;;13.60;99.90;;;;;;5080435;28;20449;-85
2023/05/15 00:10:08;;;;;;;11.90;10.80;;;13.60;99.90;;;;;;5085585;28;20479;-85
2023/05/15 00:12:36;;;;;;;11.77;10.70;;;13.70;99.90;;;;;;5090416;28;20464;-85
2023/05/15 00:15:03;;;;;;;13.57;11.03;;;13.80;99.90;;;;;;5090114;28;20861;-85
2023/05/15 00:17:30;;;;;;;11.43;10.27;;;13.60;99.90;;;;;;5081902;28;20441;-86
2023/05/15 00:19:58;;;;;;;12.87;10.00;;;13.50;99.90;;;;;;5087565;28;20505;-85
2023/05/15 00:22:25;;;;;;;14.63;10.20;;;13.40;99.90;;;;;;5080547;28;20453;-85
2023/05/15 00:24:53;;;;;;;12.73;10.80;;;13.30;99.90;;;;;;5098124;28;20425;-82
2023/05/15 00:27:19;;;;;;;11.33;10.20;;;13.40;99.90;;;;;;5098886;28;20444;-83
2023/05/15 00:29:48;;;;;;;12.20;11.17;;;13.30;1.00;;;;;;5098901;28;20465;-83
2023/05/15 00:32:15;;;;;;;13.10;11.40;;;13.20;1.00;;;;;;5098841;28;20428;-81
2023/05/15 00:34:41;;;;;;;14.07;12.60;;;13.10;1.00;;;;;;5098881;28;20396;-82
2023/05/15 00:37:08;;;;;;;12.63;11.40;;;13.20;1.00;;;;;;5098755;28;20432;-84
2023/05/15 00:39:35;;;;;;;12.80;11.60;;;13.00;1.00;;;;;;5078673;28;20538;-85
2023/05/15 00:42:03;;;;;;;12.90;11.70;;;12.90;1.00;;;;;;5078351;28;20524;-85
2023/05/15 00:44:31;;;;;;;13.77;11.30;;;12.80;1.00;;;;;;5077882;28;20495;-85
2023/05/15 00:47:02;;;;;;;11.93;10.80;;;12.90;1.00;;;;;;5079076;28;20424;-86
2023/05/15 00:49:29;;;;;;;12.40;11.20;;;13.20;1.00;;;;;;5078003;28;20555;-85
2023/05/15 00:51:57;;;;;;;12.70;11.50;;;13.00;1.00;;;;;;5080013;28;20873;-86
2023/05/15 00:54:25;;;;;;;15.77;11.20;;;13.00;1.00;;;;;;5090999;28;20467;-84
2023/05/15 00:56:55;;;;;;;12.40;11.40;;;13.00;1.00;;;;;;5087815;28;20472;-86
2023/05/15 00:59:23;;;;;;;14.93;12.13;;;13.00;99.90;;;;;;5079045;28;20464;-86
2023/05/15 01:01:51;;;;;;;13.10;11.70;;;13.10;99.90;;;;;;5079236;28;20449;-85
2023/05/15 01:04:19;;;;;;;12.60;11.33;;;13.10;99.90;;;;;;5078496;28;20478;-86
2023/05/15 01:06:47;;;;;;;15.03;13.60;;;13.10;99.90;;;;;;5078493;28;20457;-85
2023/05/15 01:09:15;;;;;;;12.30;11.20;;;13.10;99.90;;;;;;5078113;28;20470;-85
2023/05/15 01:11:42;;;;;;;13.90;12.40;;;13.00;99.90;;;;;;5078759;28;20922;-85
2023/05/15 01:14:09;;;;;;;13.27;11.87;;;12.90;1.00;;;;;;5078703;28;20952;-85
2023/05/15 01:16:37;;;;;;;13.03;11.73;;;13.10;1.00;;;;;;5078755;28;20449;-85
2023/05/15 01:19:05;;;;;;;13.60;11.30;;;13.20;1.00;;;;;;5080509;28;20476;-85
2023/05/15 01:22:19;;;;;;;18.03;16.20;;;13.30;99.90;;;;;;5081387;28;20452;-85
2023/05/15 01:25:11;;;;;;;13.30;12.00;;;13.20;99.90;;;;;;5081880;28;20991;-84
2023/05/15 01:27:45;;;;;;;14.10;12.80;;;13.20;99.90;;;;;;5081986;28;20430;-85
2023/05/15 01:30:21;;;;;;;15.27;11.23;;;13.10;1.00;;;;;;5087055;28;20947;-84
2023/05/15 01:32:54;;;;;;;13.30;12.10;;;13.10;1.00;;;;;;5083110;28;20516;-85
2023/05/15 01:35:26;;;;;;;13.17;12.00;;;12.80;1.00;;;;;;5083832;28;20489;-85
2023/05/15 01:38:02;;;;;;;13.63;11.70;;;12.80;1.00;;;;;;5082910;28;20440;-85
2023/05/15 01:40:29;;;;;;;13.30;12.10;;;12.80;1.00;;;;;;5082392;28;20505;-86
2023/05/15 01:43:06;;;;;;;12.27;11.00;;;12.80;1.00;;;;;;5082506;28;20520;-86
2023/05/15 01:45:34;;;;;;;13.03;11.67;;;12.90;1.00;;;;;;5083717;28;20433;-86
2023/05/15 01:48:01;;;;;;;14.80;11.93;;;13.10;1.00;;;;;;5084101;28;20444;-85
2023/05/15 01:50:32;;;;;;;15.67;12.50;;;12.90;1.00;;;;;;5084541;28;20447;-86
2023/05/15 01:53:02;;;;;;;15.23;13.47;;;12.90;1.00;;;;;;5085627;28;20985;-86
2023/05/15 01:55:30;;;;;;;14.77;13.47;;;12.70;1.00;;;;;;5087878;28;20424;-86
2023/05/15 01:58:01;;;;;;;15.30;13.70;;;12.80;1.00;;;;;;5086246;28;20812;-86
2023/05/15 02:00:28;;;;;;;15.00;12.63;;;12.70;1.00;;;;;;5082009;28;20489;-86
2023/05/15 02:02:57;;;;;;;14.37;13.07;;;12.50;1.00;;;;;;5081396;28;20442;-85
2023/05/15 02:05:24;;;;;;;14.93;13.43;;;12.40;1.00;;;;;;5081137;28;20456;-86
2023/05/15 02:07:52;;;;;;;14.27;12.93;;;12.40;1.00;;;;;;5087254;28;20506;-85
2023/05/15 02:10:19;;;;;;;14.43;13.00;;;12.40;1.00;;;;;;5084991;28;20476;-86
2023/05/15 02:12:47;;;;;;;15.77;14.27;;;12.40;1.00;;;;;;5083541;28;20890;-86
2023/05/15 02:15:17;;;;;;;14.60;13.10;;;12.30;1.00;;;;;;5083212;28;20449;-86
2023/05/15 02:17:44;;;;;;;15.17;13.60;;;12.20;1.00;;;;;;5084010;28;20433;-84
2023/05/15 02:20:11;;;;;;;15.60;14.00;;;12.00;99.90;;;;;;5077755;28;20447;-85
2023/05/15 02:22:38;;;;;;;15.50;13.87;;;12.10;1.00;;;;;;5090177;28;20497;-84
2023/05/15 02:25:06;;;;;;;15.17;13.20;;;12.10;1.00;;;;;;5095791;28;20476;-83
2023/05/15 02:27:43;;;;;;;15.60;13.33;;;12.10;1.00;;;;;;5096109;28;20472;-84
2023/05/15 02:30:28;;;;;;;15.57;14.00;;;12.10;1.00;;;;;;5096131;28;20497;-84
2023/05/15 02:33:04;;;;;;;16.43;14.73;;;12.10;1.00;;;;;;5096087;28;20400;-84
2023/05/15 02:35:45;;;;;;;18.20;16.30;;;12.10;1.00;;;;;;5095470;28;20434;-85
2023/05/15 02:38:16;;;;;;;15.50;14.10;;;11.30;99.90;;;;;;5091864;28;20458;-84
2023/05/15 02:40:45;;;;;;;15.83;14.30;;;11.90;1.00;;;;;;5089177;28;20919;-85
2023/05/15 02:43:13;;;;;;;18.77;14.33;;;11.80;1.00;;;;;;5090505;28;20508;-84
2023/05/15 02:45:42;;;;;;;15.33;13.80;;;12.00;1.00;;;;;;5084983;28;20528;-85
2023/05/15 02:48:09;;;;;;;15.73;14.07;;;12.20;56.00;;;;;;5080537;28;20535;-84
2023/05/15 02:50:36;;;;;;;16.10;14.50;;;12.20;1.00;;;;;;5084422;28;20457;-85
2023/05/15 02:53:03;;;;;;;16.30;14.80;;;12.20;1.00;;;;;;5082708;28;20460;-85
2023/05/15 02:55:30;;;;;;;17.00;14.97;;;12.10;1.00;;;;;;5085095;28;20522;-85
2023/05/15 02:57:58;;;;;;;15.10;13.70;;;12.10;1.00;;;;;;5095407;28;20445;-83
2023/05/15 03:00:25;;;;;;;16.47;14.77;;;12.20;1.00;;;;;;5089810;28;20504;-85
2023/05/15 03:02:53;;;;;;;16.37;14.40;;;12.20;1.00;;;;;;5080187;28;20528;-85
2023/05/15 03:05:20;;;;;;;17.03;14.27;;;12.20;1.00;;;;;;5079352;28;20485;-85
2023/05/15 03:07:47;;;;;;;18.43;16.47;;;12.20;1.00;;;;;;5078843;28;20803;-86
2023/05/15 03:10:14;;;;;;;16.43;14.97;;;12.10;1.00;;;;;;5078048;28;20559;-85
2023/05/15 03:12:40;;;;;;;15.40;13.63;;;12.00;1.00;;;;;;5082814;28;20467;-84
2023/05/15 03:15:08;;;;;;;17.60;15.73;;;11.90;1.00;;;;;;5078662;28;20445;-86
2023/05/15 03:17:35;;;;;;;18.00;16.00;;;11.90;1.00;;;;;;5079087;28;20472;-85
2023/05/15 03:20:04;;;;;;;17.30;14.43;;;11.80;1.00;;;;;;5116147;22;20470;-81
2023/05/15 03:22:31;;;;;;;16.27;14.60;;;11.90;51.80;;;;;;5105629;28;20462;-79
2023/05/15 03:25:00;;;;;;;17.60;14.30;;;12.00;1.00;;;;;;5109049;28;20915;-80
2023/05/15 03:27:28;;;;;;;17.30;14.97;;;11.90;1.00;;;;;;5103181;28;20425;-78
2023/05/15 03:29:55;;;;;;;17.00;14.73;;;11.80;65.10;;;;;;5098399;28;20468;-79
2023/05/15 03:32:22;;;;;;;17.00;15.30;;;11.70;99.90;;;;;;5098750;28;20449;-79
2023/05/15 03:34:48;;;;;;;16.97;15.17;;;11.70;99.90;;;;;;5096738;28;20441;-78
2023/05/15 03:37:17;;;;;;;17.23;15.53;;;11.70;7.90;;;;;;5103239;28;20456;-78
2023/05/15 03:39:43;;;;;;;15.40;13.90;;;11.70;1.00;;;;;;5102980;28;20824;-78
2023/05/15 03:42:10;;;;;;;19.57;15.57;;;11.80;1.00;;;;;;5101018;28;20464;-79
2023/05/15 03:44:37;;;;;;;16.27;14.63;;;11.80;1.00;;;;;;5098358;28;20480;-79
2023/05/15 03:47:04;;;;;;;15.43;14.07;;;11.80;1.00;;;;;;5096458;28;20543;-80
2023/05/15 03:49:31;;;;;;;17.03;15.00;;;11.80;1.00;;;;;;5098822;28;20908;-80
2023/05/15 03:51:58;;;;;;;17.13;14.40;;;12.00;1.00;;;;;;5098038;28;20415;-79
2023/05/15 03:54:26;;;;;;;22.07;15.03;;;12.10;1.00;;;;;;5101061;28;20441;-78
2023/05/15 03:56:53;;;;;;;16.90;15.10;;;12.10;1.00;;;;;;5101644;28;20788;-78
2023/05/15 03:59:20;;;;;;;16.47;14.80;;;12.00;1.00;;;;;;5097764;28;20521;-80
2023/05/15 04:01:46;;;;;;;16.33;14.17;;;11.90;1.00;;;;;;5095806;28;20882;-78
2023/05/15 04:04:13;;;;;;;15.93;14.32;;;11.80;1.00;;;;;;5096195;28;20475;-80
2023/05/15 04:06:40;;;;;;;17.70;16.00;;;11.80;1.00;;;;;;5097298;28;20202;-80
2023/05/15 04:09:07;;;;;;;15.37;13.77;;;12.00;1.00;;;;;;5097803;28;20464;-80
2023/05/15 04:11:35;;;;;;;16.60;14.73;;;12.00;1.00;;;;;;5097697;28;20860;-79
2023/05/15 04:14:02;;;;;;;16.47;14.33;;;12.10;1.00;;;;;;5098347;28;20882;-80
2023/05/15 04:16:29;;;;;;;17.20;15.50;;;12.00;1.00;;;;;;5099648;28;20444;-79
2023/05/15 04:18:56;;;;;;;17.07;15.37;;;12.00;1.00;;;;;;5109726;28;20468;-78
2023/05/15 04:21:22;;;;;;;18.47;16.10;;;12.00;1.00;;;;;;5116050;28;20431;-80
2023/05/15 04:23:49;;;;;;;17.07;15.37;;;12.10;1.00;;;;;;5105501;28;20452;-78
2023/05/15 04:26:17;;;;;;;16.50;14.90;;;12.10;1.00;;;;;;5110504;28;20452;-80
2023/05/15 04:28:45;;;;;;;15.43;14.03;;;12.30;7.30;;;;;;5099069;28;20459;-78
2023/05/15 04:31:12;;;;;;;15.80;14.20;;;12.30;1.00;;;;;;5100712;28;20521;-80
2023/05/15 04:33:39;;;;;;;16.37;14.87;;;12.40;1.00;;;;;;5104435;28;20458;-79
2023/05/15 04:36:07;;;;;;;17.73;15.80;;;12.30;1.00;;;;;;5106569;28;20471;-79
2023/05/15 04:38:33;;;;;;;16.90;15.40;;;12.30;92.50;;;;;;5107248;28;20479;-79
2023/05/15 04:41:00;;;;;;;24.83;15.90;;;12.30;84.00;;;;;;5107863;28;20444;-79
2023/05/15 04:43:27;;;;;;;16.93;15.20;;;12.20;1.00;;;;;;5105528;28;20452;-79
2023/05/15 04:45:56;;;;;;;16.80;15.10;;;12.50;99.90;;;;;;5104904;28;20554;-80
2023/05/15 04:48:22;;;;;;;16.37;14.67;;;12.20;1.00;;;;;;5104226;28;20817;-81
2023/05/15 04:50:52;;;;;;;19.87;14.60;;;12.30;1.00;;;;;;5099804;28;20551;-79
2023/05/15 04:53:19;;;;;;;18.57;16.03;;;12.40;1.00;;;;;;5102872;28;20432;-79
2023/05/15 04:55:50;;;;;;;18.23;14.43;;;12.60;1.00;;;;;;5103454;28;20511;-79
2023/05/15 04:58:17;;;;;;;17.57;15.50;;;12.70;1.00;;;;;;5102976;28;20439;-79
2023/05/15 05:00:43;;;;;;;16.37;14.67;;;12.80;1.00;;;;;;5102272;28;20470;-79
2023/05/15 05:03:12;;;;;;;18.10;15.80;;;12.80;1.00;;;;;;5102130;28;20444;-79
2023/05/15 05:05:39;;;;;;;17.07;15.60;;;12.90;1.00;;;;;;5103788;28;20459;-79
2023/05/15 05:08:06;;;;;;;17.97;16.17;;;12.90;1.00;;;;;;5107066;28;20458;-80
2023/05/15 05:10:32;;;;;;;16.97;14.93;;;13.00;1.00;;;;;;5113728;28;20488;-79
2023/05/15 05:12:59;;;;;;;17.37;15.67;;;13.10;1.00;;;;;;5107566;28;20454;-79
2023/05/15 05:15:26;;;;;;;25.73;16.53;;;13.20;1.00;;;;;;5113718;28;20438;-79
2023/05/15 05:17:53;;;;;;;20.73;16.10;;;13.30;1.00;;;;;;5114090;28;20444;-79
2023/05/15 05:20:23;;;;;;;16.80;14.73;;;13.50;1.00;;;;;;5113961;28;20503;-79
2023/05/15 05:22:50;;;;;;;18.07;15.20;;;13.70;1.00;;;;;;5106399;28;20448;-79
2023/05/15 05:25:17;;;;;;;19.13;16.63;;;13.80;1.00;;;;;;5102335;28;20460;-79
2023/05/15 05:27:43;;;;;;;24.73;17.00;;;13.90;1.00;;;;;;5102321;28;20414;-79
2023/05/15 05:30:11;;;;;;;19.80;17.47;;;14.00;1.00;;;;;;5103762;28;20468;-80
2023/05/15 05:32:38;;;;;;;15.77;14.30;;;14.10;99.90;;;;;;5103938;28;20531;-79
2023/05/15 05:35:05;;;;;;;15.10;13.53;;;14.20;99.90;;;;;;5107503;28;20440;-80
2023/05/15 05:37:34;;;;;;;15.83;13.90;;;14.30;99.90;;;;;;5106392;28;20826;-79
2023/05/15 05:40:00;;;;;;;16.83;15.00;;;14.40;1.00;;;;;;5104574;28;20511;-79
2023/05/15 05:42:27;;;;;;;18.57;15.83;;;14.50;99.90;;;;;;5101094;28;20478;-79
2023/05/15 05:44:54;;;;;;;17.57;15.60;;;14.50;99.90;;;;;;5100369;28;20484;-79
2023/05/15 05:47:21;;;;;;;17.70;14.10;;;14.50;99.90;;;;;;5100326;28;20440;-79
2023/05/15 05:49:48;;;;;;;15.43;14.03;;;14.50;99.90;;;;;;5099008;28;20472;-79
2023/05/15 05:52:15;;;;;;;13.93;12.50;;;14.70;99.90;;;;;;5099462;28;20455;-80
2023/05/15 05:54:45;;;;;;;13.80;12.50;;;14.70;99.90;;;;;;5101505;28;20451;-80
2023/05/15 05:57:12;;;;;;;15.07;13.13;;;14.80;99.90;;;;;;5101509;28;20466;-80
2023/05/15 05:59:39;;;;;;;15.73;12.50;;;14.80;99.90;;;;;;5101399;28;20468;-79
2023/05/15 06:02:05;;;;;;;14.67;13.03;;;14.80;99.90;;;;;;5100413;28;20453;-79
2023/05/15 06:04:33;;;;;;;17.90;13.13;;;14.80;99.90;;;;;;5098891;28;20487;-79
2023/05/15 06:07:00;;;;;;;17.57;12.50;;;14.90;99.90;;;;;;5099064;28;20448;-79
2023/05/15 06:09:27;;;;;;;18.10;13.87;;;14.90;1.00;;;;;;5098206;28;20517;-80
2023/05/15 06:11:55;;;;;;;13.93;12.57;;;14.90;99.90;;;;;;5100612;28;20448;-79
2023/05/15 06:14:22;;;;;;;16.00;12.70;;;14.90;99.90;;;;;;5104364;28;20450;-79
2023/05/15 06:16:48;;;;;;;20.33;14.63;;;15.00;99.90;;;;;;5103909;28;20502;-79
2023/05/15 06:19:15;;;;;;;18.23;14.30;;;15.00;99.90;;;;;;5102149;28;20488;-80
2023/05/15 06:21:42;;;;;;;13.77;11.57;;;15.00;99.90;;;;;;5099370;28;20433;-79
2023/05/15 06:24:12;;;;;;;15.20;13.23;;;15.00;99.90;;;;;;5099235;28;20938;-78
2023/05/15 06:26:39;;;;;;;17.17;13.40;;;15.10;99.90;;;;;;5099686;28;20527;-80
2023/05/15 06:29:07;;;;;;;19.60;13.57;;;15.10;99.90;;;;;;5100774;28;21050;-79
2023/05/15 06:31:34;;;;;;;16.40;13.40;;;15.30;99.90;;;;;;5101939;28;20963;-79
2023/05/15 06:34:01;;;;;;;15.23;13.63;;;15.30;99.90;;;;;;5102250;28;20448;-79
2023/05/15 06:36:28;;;;;;;18.03;13.03;;;15.30;99.90;;;;;;5111714;28;20476;-79
2023/05/15 06:38:55;;;;;;;15.90;12.00;;;15.20;99.90;;;;;;5105716;28;20472;-80
2023/05/15 06:41:22;;;;;;;17.70;14.30;;;15.30;99.90;;;;;;5106566;28;20444;-79
2023/05/15 06:43:49;;;;;;;13.87;12.47;;;15.50;99.90;;;;;;5118365;28;20436;-78
2023/05/15 06:46:17;;;;;;;14.60;11.97;;;15.70;99.90;;;;;;5119498;28;20515;-78
2023/05/15 06:48:44;;;;;;;13.93;12.50;;;15.40;1.00;;;;;;5118238;28;20459;-78
2023/05/15 06:51:11;;;;;;;13.90;12.50;;;15.70;99.90;;;;;;5116188;28;20447;-79
2023/05/15 06:53:42;;;;;;;25.90;12.07;;;15.60;99.90;;;;;;5116023;28;20459;-79
2023/05/15 06:56:09;;;;;;;28.20;25.27;;;15.60;99.90;;;;;;5114505;28;20417;-79
2023/05/15 06:58:35;;;;;;;14.93;13.40;;;16.00;1.00;;;;;;5106921;28;20483;-79
2023/05/15 07:01:02;;;;;;;17.03;12.33;;;15.80;99.90;;;;;;5102605;28;20618;-80
2023/05/15 07:03:31;;;;;;;14.70;11.47;;;16.00;99.90;;;;;;5104444;28;20455;-79
2023/05/15 07:06:00;;;;;;;12.23;10.97;;;16.00;99.90;;;;;;5102919;28;20537;-79
2023/05/15 07:08:27;;;;;;;12.10;10.87;;;16.10;99.90;;;;;;5102082;28;20440;-81
2023/05/15 07:10:55;;;;;;;12.93;11.47;;;16.40;99.90;;;;;;5102220;28;20551;-79
2023/05/15 07:13:22;;;;;;;14.07;12.17;;;16.30;99.90;;;;;;5109169;28;20452;-79
2023/05/15 07:15:49;;;;;;;13.83;9.67;;;16.40;99.90;;;;;;5110773;28;20510;-79
2023/05/15 07:18:18;;;;;;;15.60;9.93;;;16.40;99.90;;;;;;5104969;28;20859;-79
2023/05/15 07:20:46;;;;;;;10.27;9.47;;;16.50;99.90;;;;;;5101305;28;20558;-79
2023/05/15 07:23:13;;;;;;;11.20;10.10;;;16.60;99.90;;;;;;5100919;28;20536;-79
2023/05/15 07:25:40;;;;;;;11.27;10.30;;;16.60;99.90;;;;;;5101156;28;20507;-79
2023/05/15 07:28:07;;;;;;;11.10;10.10;;;16.80;99.90;;;;;;5113137;28;20455;-79
2023/05/15 07:30:34;;;;;;;12.10;10.30;;;16.90;99.90;;;;;;5111137;28;20471;-79
2023/05/15 07:33:00;;;;;;;10.83;9.70;;;16.70;99.90;;;;;;5099895;28;20455;-79
2023/05/15 07:35:27;;;;;;;11.87;10.00;;;16.70;99.90;;;;;;5097616;28;20528;-79
2023/05/15 07:37:55;;;;;;;10.60;9.70;;;16.80;99.90;;;;;;5097473;28;20862;-79
2023/05/15 07:40:22;;;;;;;13.00;9.20;;;16.90;99.90;;;;;;5100619;28;20468;-78
2023/05/15 07:42:49;;;;;;;10.23;9.23;;;16.80;99.90;;;;;;5102025;28;20467;-78
2023/05/15 07:45:17;;;;;;;11.00;9.20;;;16.80;99.90;;;;;;5101088;28;20512;-79
2023/05/15 07:47:45;;;;;;;12.77;9.90;;;16.70;99.90;;;;;;5098896;28;20444;-79
2023/05/15 07:50:13;;;;;;;9.60;8.70;;;16.70;99.90;;;;;;5099965;28;20464;-78
2023/05/15 07:52:40;;;;;;;14.97;10.80;;;16.70;99.90;;;;;;5099501;28;20454;-80
2023/05/15 07:55:09;;;;;;;11.73;8.87;;;16.80;99.90;;;;;;5096674;28;20507;-79
2023/05/15 07:57:36;;;;;;;12.70;9.50;;;16.80;99.90;;;;;;5098097;28;20451;-79
2023/05/15 08:00:09;;;;;;;10.87;8.40;;;16.80;99.90;;;;;;5096594;28;20469;-79
2023/05/15 08:02:35;;;;;;;10.97;9.17;;;16.80;99.90;;;;;;5096160;28;20480;-80
2023/05/15 08:05:03;;;;;;;10.03;9.17;;;16.90;99.90;;;;;;5095892;28;20480;-78
2023/05/15 08:07:31;;;;;;;13.13;9.97;;;16.80;99.90;;;;;;5101392;28;20849;-79
2023/05/15 08:09:59;;;;;;;11.20;9.70;;;16.90;99.90;;;;;;5107515;28;20474;-79
2023/05/15 08:12:27;;;;;;;13.03;9.50;;;16.90;99.90;;;;;;5099955;28;20444;-79
2023/05/15 08:14:55;;;;;;;13.23;11.10;;;17.00;99.90;;;;;;5097322;28;20441;-78
2023/05/15 08:17:22;;;;;;;12.30;9.60;;;17.00;99.90;;;;;;5100082;28;20822;-78
2023/05/15 08:19:49;;;;;;;9.67;8.60;;;17.20;99.90;;;;;;5099582;28;20476;-79
2023/05/15 08:22:16;;;;;;;9.80;8.47;;;17.30;99.90;;;;;;5100238;28;20458;-78
2023/05/15 08:24:44;;;;;;;11.43;8.77;;;17.40;99.90;;;;;;5098648;28;20448;-78
2023/05/15 08:27:11;;;;;;;9.00;7.83;;;17.40;99.90;;;;;;5099318;28;20486;-78
2023/05/15 08:29:39;;;;;;;13.80;9.00;;;17.50;99.90;;;;;;5103482;28;20466;-80
2023/05/15 08:32:07;;;;;;;9.57;8.77;;;17.60;99.90;;;;;;5104867;28;20444;-80
2023/05/15 08:34:38;;;;;;;9.67;7.60;;;17.60;99.90;;;;;;5108090;28;20985;-80
2023/05/15 08:37:06;;;;;;;9.43;8.43;;;17.60;99.90;;;;;;5111646;28;20448;-79
2023/05/15 08:39:33;;;;;;;8.30;7.50;;;17.60;99.90;;;;;;5108347;28;20464;-79
2023/05/15 08:42:05;;;;;;;8.00;6.63;;;17.50;99.90;;;;;;5107473;28;20448;-78
2023/05/15 08:44:33;;;;;;;8.03;7.07;;;17.50;99.90;;;;;;5107168;28;20456;-78
2023/05/15 08:47:05;;;;;;;13.50;7.30;;;17.50;99.90;;;;;;5110955;28;20556;-79
2023/05/15 08:49:39;;;;;;;7.27;6.40;;;17.40;99.90;;;;;;5113926;28;20464;-79
2023/05/15 08:52:07;;;;;;;9.17;7.20;;;17.40;99.90;;;;;;5111210;28;20459;-78
2023/05/15 08:54:35;;;;;;;9.40;8.20;;;17.10;1.00;;;;;;5105347;28;20452;-79
2023/05/15 08:57:03;;;;;;;12.73;7.83;;;17.20;99.90;;;;;;5104135;28;20475;-79
2023/05/15 08:59:29;;;;;;;7.93;7.23;;;17.30;99.90;;;;;;5103569;28;20472;-80
2023/05/15 09:01:57;;;;;;;11.57;7.97;;;17.40;99.90;;;;;;5104381;28;20879;-79
2023/05/15 09:04:26;;;;;;;8.63;6.50;;;17.40;99.90;;;;;;5104036;28;20440;-79
2023/05/15 09:06:53;;;;;;;10.80;8.30;;;17.40;99.90;;;;;;5104974;28;20479;-78
2023/05/15 09:09:20;;;;;;;10.37;7.90;;;17.20;99.90;;;;;;5103460;28;20463;-78
2023/05/15 09:11:48;;;;;;;8.00;7.20;;;17.40;99.90;;;;;;5103336;28;20451;-79
2023/05/15 09:14:15;;;;;;;8.20;6.87;;;17.50;99.90;;;;;;5104177;28;20531;-79
2023/05/15 09:16:42;;;;;;;6.90;6.40;;;17.50;99.90;;;;;;5103077;28;20448;-78
2023/05/15 09:19:10;;;;;;;8.47;6.60;;;17.70;99.90;;;;;;5117089;22;20474;-86
2023/05/15 09:21:38;;;;;;;7.30;6.67;;;17.50;99.90;;;;;;5106334;28;20494;-86
2023/05/15 09:24:20;;;;;;;8.70;6.40;;;17.50;99.90;;;;;;5106709;28;20853;-85
2023/05/15 09:27:01;;;;;;;7.40;6.43;;;17.40;99.90;;;;;;5106834;28;20475;-86
2023/05/15 09:29:28;;;;;;;8.80;6.70;;;17.50;99.90;;;;;;5099808;28;21112;-86
2023/05/15 09:31:56;;;;;;;7.73;6.80;;;17.50;99.90;;;;;;5087026;28;20445;-86
2023/05/15 09:34:30;;;;;;;9.50;7.50;;;17.60;99.90;;;;;;5087043;28;20473;-86
2023/05/15 09:36:58;;;;;;;6.43;5.93;;;17.70;99.90;;;;;;5089780;28;20874;-86
2023/05/15 09:39:25;;;;;;;7.40;6.80;;;17.70;99.90;;;;;;5084609;28;20907;-86
2023/05/15 09:41:52;;;;;;;8.70;6.97;;;17.70;99.90;;;;;;5083006;28;20831;-85
2023/05/15 09:44:24;;;;;;;7.53;6.43;;;17.70;99.90;;;;;;5084022;28;20880;-85
2023/05/15 09:46:51;;;;;;;7.63;6.93;;;17.70;99.90;;;;;;5083611;28;20461;-85
2023/05/15 09:49:18;;;;;;;8.00;7.00;;;17.70;99.90;;;;;;5083969;28;20469;-86
2023/05/15 09:51:47;;;;;;;10.90;8.63;;;18.20;1.00;;;;;;5085413;28;20524;-85
2023/05/15 09:54:28;;;;;;;7.37;6.67;;;17.90;99.90;;;;;;5086507;28;20468;-86
2023/05/15 09:56:56;;;;;;;8.30;6.93;;;18.40;99.90;;;;;;5089453;28;20426;-86
2023/05/15 09:59:23;;;;;;;7.87;7.17;;;17.90;99.90;;;;;;5083397;28;20469;-86
2023/05/15 10:01:51;;;;;;;10.30;7.47;;;18.00;99.90;;;;;;5092618;28;20676;-84
2023/05/15 10:04:18;;;;;;;7.40;6.80;;;17.90;99.90;;;;;;5087981;28;20444;-85
2023/05/15 10:06:46;;;;;;;10.67;7.23;;;17.80;99.90;;;;;;5079499;28;20571;-85
2023/05/15 10:09:14;;;;;;;8.07;6.63;;;17.90;99.90;;;;;;5080169;28;20465;-85
2023/05/15 10:11:44;;;;;;;10.43;7.73;;;18.00;99.90;;;;;;5080956;28;20441;-84
2023/05/15 10:14:12;;;;;;;9.07;7.50;;;18.00;99.90;;;;;;5086959;28;20516;-86
2023/05/15 10:16:41;;;;;;;7.30;6.63;;;18.10;99.90;;;;;;5083422;28;20468;-85
2023/05/15 10:19:09;;;;;;;9.50;8.40;;;18.10;99.90;;;;;;5082479;28;20450;-86
2023/05/15 10:21:37;;;;;;;8.60;6.27;;;18.00;1.00;;;;;;5086518;28;20422;-86
2023/05/15 10:24:06;;;;;;;8.37;7.60;;;18.40;1.00;;;;;;5088982;28;20441;-86
2023/05/15 10:26:37;;;;;;;11.17;7.60;;;18.20;99.90;;;;;;5095173;28;20497;-85
2023/05/15 10:29:09;;;;;;;12.23;7.00;;;18.00;1.00;;;;;;5096187;28;20418;-84
2023/05/15 10:31:36;;;;;;;7.87;7.07;;;18.50;99.90;;;;;;5092672;28;20438;-87
2023/05/15 10:34:04;;;;;;;10.37;7.17;;;18.20;99.90;;;;;;5091866;28;20446;-86
2023/05/15 10:36:32;;;;;;;8.43;7.63;;;18.20;99.90;;;;;;5095101;28;20433;-85
2023/05/15 10:39:02;;;;;;;10.10;7.20;;;17.60;1.00;;;;;;5088761;28;20445;-86
2023/05/15 10:41:30;;;;;;;9.30;6.57;;;17.90;99.90;;;;;;5082558;28;20525;-86
2023/05/15 10:43:59;;;;;;;7.57;6.77;;;17.70;1.00;;;;;;5083994;28;20456;-86
2023/05/15 10:46:30;;;;;;;8.43;6.77;;;17.30;1.00;;;;;;5083451;28;20845;-86
2023/05/15 10:48:58;;;;;;;8.70;5.97;;;17.00;1.00;;;;;;5082744;28;20434;-86
2023/05/15 10:51:26;;;;;;;6.73;6.03;;;17.20;99.90;;;;;;5083392;28;20540;-86
2023/05/15 10:53:54;;;;;;;6.10;5.67;;;17.20;99.90;;;;;;5082839;28;20449;-86
2023/05/15 10:56:21;;;;;;;6.43;5.93;;;17.20;99.90;;;;;;5080684;28;20441;-86
2023/05/15 10:58:48;;;;;;;7.10;6.40;;;17.40;1.00;;;;;;5081729;28;20532;-84
2023/05/15 11:01:28;;;;;;;6.20;5.43;;;17.20;99.90;;;;;;5082528;28;20504;-85
2023/05/15 11:04:09;;;;;;;6.80;6.13;;;17.50;1.00;;;;;;5092351;28;20492;-84
2023/05/15 11:06:36;;;;;;;9.50;6.70;;;17.10;99.90;;;;;;5099749;28;20458;-82
2023/05/15 11:09:38;;;;;;;6.70;6.13;;;17.00;1.00;;;;;;5099829;28;20410;-81
2023/05/15 11:12:06;;;;;;;6.00;5.40;;;17.00;99.90;;;;;;5099771;28;20432;-83
2023/05/15 11:14:36;;;;;;;6.20;5.60;;;16.50;99.90;;;;;;5099432;28;20434;-83
2023/05/15 11:17:06;;;;;;;6.43;5.50;;;17.10;99.90;;;;;;5099372;28;20481;-83
2023/05/15 11:19:35;;;;;;;6.27;5.73;;;17.20;99.90;;;;;;5095306;28;20546;-85
2023/05/15 11:22:16;;;;;;;5.80;5.20;;;17.20;1.00;;;;;;5097333;28;20455;-83
2023/05/15 11:24:51;;;;;;;7.03;6.43;;;17.30;99.90;;;;;;5096393;28;20434;-85
2023/05/15 11:27:19;;;;;;;6.27;5.60;;;17.40;99.90;;;;;;5095837;28;20505;-84
2023/05/15 11:30:12;;;;;;;7.90;6.40;;;17.60;99.90;;;;;;5096680;28;20461;-85
2023/05/15 11:32:47;;;;;;;8.00;6.93;;;17.70;99.90;;;;;;5086840;28;20503;-86
2023/05/15 11:35:19;;;;;;;7.50;5.10;;;18.10;1.00;;;;;;5085144;28;20485;-86
2023/05/15 11:37:48;;;;;;;36.90;25.43;;;17.80;1.00;;;;;;5081977;28;20973;-86
2023/05/15 11:40:20;;;;;;;8.37;7.07;;;18.20;99.90;;;;;;5090522;28;20445;-85
2023/05/15 11:43:00;;;;;;;6.50;6.00;;;18.40;99.90;;;;;;5097738;28;20418;-85
2023/05/15 11:45:29;;;;;;;6.53;5.77;;;18.40;99.90;;;;;;5083025;28;20460;-86
2023/05/15 11:47:59;;;;;;;7.33;5.23;;;18.50;99.90;;;;;;5083332;28;20472;-86
2023/05/15 11:50:27;;;;;;;6.20;5.50;;;18.50;99.90;;;;;;5081400;28;20560;-86
2023/05/15 11:52:54;;;;;;;4.67;4.30;;;19.00;99.90;;;;;;5081331;28;20532;-85
2023/05/15 11:55:22;;;;;;;5.37;4.23;;;19.20;99.90;;;;;;5082027;28;20529;-86
2023/05/15 11:57:49;;;;;;;5.40;4.20;;;19.40;99.90;;;;;;5080221;28;20449;-85
2023/05/15 12:00:16;;;;;;;4.40;4.00;;;19.40;99.90;;;;;;5081721;28;20465;-87
2023/05/15 12:02:43;;;;;;;5.10;4.70;;;19.40;99.90;;;;;;5081242;28;20449;-87
2023/05/15 12:05:11;;;;;;;4.80;4.00;;;19.30;99.90;;;;;;5084249;28;20449;-84
2023/05/15 12:07:40;;;;;;;6.10;4.37;;;19.20;99.90;;;;;;5083749;28;21099;-84
2023/05/15 12:10:10;;;;;;;4.20;3.80;;;19.10;99.90;;;;;;5084425;28;20533;-85
2023/05/15 12:12:40;;;;;;;4.60;4.20;;;19.00;99.90;;;;;;5083366;28;20940;-86
2023/05/15 12:15:10;;;;;;;4.63;4.23;;;19.00;99.90;;;;;;5080977;28;21022;-86
2023/05/15 12:17:38;;;;;;;3.53;3.23;;;19.20;99.90;;;;;;5083140;28;20447;-86
2023/05/15 12:20:09;;;;;;;6.67;3.20;;;19.30;99.90;;;;;;5077814;28;20520;-86
2023/05/15 12:22:39;;;;;;;3.40;2.93;;;19.30;99.90;;;;;;5079310;28;20441;-86
2023/05/15 12:25:07;;;;;;;3.30;3.00;;;19.40;99.90;;;;;;5078797;28;20536;-87
2023/05/15 12:27:34;;;;;;;3.40;3.20;;;19.60;99.90;;;;;;5079247;28;20485;-87
2023/05/15 12:30:02;;;;;;;2.93;2.73;;;19.70;99.90;;;;;;5080333;28;21003;-86
2023/05/15 12:32:32;;;;;;;12.60;8.63;;;19.80;99.90;;;;;;5080567;28;20962;-86
2023/05/15 12:34:59;;;;;;;3.60;3.40;;;19.80;99.90;;;;;;5080988;28;20445;-86
2023/05/15 12:37:26;;;;;;;4.20;3.80;;;19.50;1.00;;;;;;5081993;28;20520;-87
2023/05/15 12:39:56;;;;;;;3.87;3.50;;;19.70;99.90;;;;;;5080756;28;20495;-86
2023/05/15 12:42:23;;;;;;;3.57;3.10;;;19.70;99.90;;;;;;5082950;28;20426;-87
2023/05/15 12:44:52;;;;;;;2.97;2.67;;;19.80;99.90;;;;;;5093091;28;20445;-86